PWSweather.com
Personal Weather Stations
Station Observations
URBANDALE
Westwind Acres And Meredith Hills, Urbandale, IA 50322

Westwind Acres And Meredith HillsUrbandale, IA 50322

Lat: 41.643, Lon: -93.709

Elevation: 928

Station Type:

http://urbandaleweather.com

High Low Average
Temperature 80.1°F26.7°C 62.8°F17.1°C 73.4°F23.0°C
Dew Point 73.4°F23.0°C 61.9°F16.6°C 69.6°F20.9°C
Winds 2.0 mph 3.2 kmh Calm Calm Calm SCalm S
Wind Gusts 9.0 mph14.5 kmh -- 2.0 mph3.2 kmh
Humidity 97% 79% 88%
Pressure 29.89 in1012.2 mb 29.79 in1008.8 mb -
Precipitation 2.21 in56.1 mm - -
Hour Temp Dew Point Humidity Winds Wind Gusts Pressure Precip Precip Rate Daily Precip Total
12:02 AM 76.3°F24.6°C 71.1°F21.7°C 84% 0.9 mph SSW1.4 kmh SSW 2.0 mph3.2 kmh 29.85 in1010.8 mb 0.00 in0.0 mm 0.00 in0.0 mm 0.00 in0.0 mm
12:07 AM 76.3°F24.6°C 70.7°F21.5°C 83% 0.9 mph SSW1.4 kmh SSW 4.0 mph6.4 kmh 29.84 in1010.5 mb 0.00 in0.0 mm 0.00 in0.0 mm 0.00 in0.0 mm
12:12 AM 76.5°F24.7°C 70.9°F21.6°C 83% 0.9 mph S1.4 kmh S 4.0 mph6.4 kmh 29.84 in1010.5 mb 0.00 in0.0 mm 0.00 in0.0 mm 0.00 in0.0 mm
12:17 AM 76.3°F24.6°C 70.7°F21.5°C 83% 0.9 mph SSW1.4 kmh SSW 2.0 mph3.2 kmh 29.85 in1010.8 mb 0.00 in0.0 mm 0.00 in0.0 mm 0.00 in0.0 mm
12:22 AM 76.3°F24.6°C 70.7°F21.5°C 83% 0.9 mph S1.4 kmh S 3.0 mph4.8 kmh 29.85 in1010.8 mb 0.00 in0.0 mm 0.00 in0.0 mm 0.00 in0.0 mm
12:27 AM 76.3°F24.6°C 70.7°F21.5°C 83% 0.9 mph S1.4 kmh S 5.0 mph8.0 kmh 29.85 in1010.8 mb 0.00 in0.0 mm 0.00 in0.0 mm 0.00 in0.0 mm
12:32 AM 76.3°F24.6°C 70.7°F21.5°C 83% Calm Calm 2.0 mph3.2 kmh 29.85 in1010.8 mb 0.00 in0.0 mm 0.00 in0.0 mm 0.00 in0.0 mm
12:37 AM 76.3°F24.6°C 70.7°F21.5°C 83% 0.9 mph SSW1.4 kmh SSW 3.0 mph4.8 kmh 29.85 in1010.8 mb 0.00 in0.0 mm 0.00 in0.0 mm 0.00 in0.0 mm
12:42 AM 76.1°F24.5°C 70.5°F21.4°C 83% 0.9 mph SW1.4 kmh SW 4.0 mph6.4 kmh 29.85 in1010.8 mb 0.00 in0.0 mm 0.00 in0.0 mm 0.00 in0.0 mm
12:47 AM 76.3°F24.6°C 70.7°F21.5°C 83% 0.9 mph S1.4 kmh S 8.1 mph13.0 kmh 29.85 in1010.8 mb 0.00 in0.0 mm 0.00 in0.0 mm 0.00 in0.0 mm
12:52 AM 76.3°F24.6°C 70.7°F21.5°C 83% 2.0 mph SW3.2 kmh SW 4.0 mph6.4 kmh 29.85 in1010.8 mb 0.00 in0.0 mm 0.00 in0.0 mm 0.00 in0.0 mm
12:57 AM 76.3°F24.6°C 70.7°F21.5°C 83% 0.9 mph S1.4 kmh S 2.9 mph4.7 kmh 29.85 in1010.8 mb 0.00 in0.0 mm 0.00 in0.0 mm 0.00 in0.0 mm
01:02 AM 76.1°F24.5°C 70.5°F21.4°C 83% 0.9 mph SW1.4 kmh SW 2.9 mph4.7 kmh 29.85 in1010.8 mb 0.00 in0.0 mm 0.00 in0.0 mm 0.00 in0.0 mm
01:07 AM 76.1°F24.5°C 70.5°F21.4°C 83% 0.9 mph S1.4 kmh S 4.0 mph6.4 kmh 29.86 in1011.2 mb 0.00 in0.0 mm 0.00 in0.0 mm 0.00 in0.0 mm
01:12 AM 76.1°F24.5°C 70.5°F21.4°C 83% 0.9 mph S1.4 kmh S 4.0 mph6.4 kmh 29.85 in1010.8 mb 0.00 in0.0 mm 0.00 in0.0 mm 0.00 in0.0 mm
01:17 AM 75.9°F24.4°C 70.3°F21.3°C 83% 0.9 mph SSE1.4 kmh SSE 2.9 mph4.7 kmh 29.86 in1011.2 mb 0.00 in0.0 mm 0.00 in0.0 mm 0.00 in0.0 mm
01:22 AM 76.1°F24.5°C 70.5°F21.4°C 83% 0.9 mph SW1.4 kmh SW 8.1 mph13.0 kmh 29.86 in1011.2 mb 0.00 in0.0 mm 0.00 in0.0 mm 0.00 in0.0 mm
01:27 AM 76.1°F24.5°C 70.5°F21.4°C 83% 2.0 mph SW3.2 kmh SW 4.0 mph6.4 kmh 29.86 in1011.2 mb 0.00 in0.0 mm 0.00 in0.0 mm 0.00 in0.0 mm
01:32 AM 76.1°F24.5°C 70.5°F21.4°C 83% 2.0 mph SW3.2 kmh SW 2.9 mph4.7 kmh 29.85 in1010.8 mb 0.00 in0.0 mm 0.00 in0.0 mm 0.00 in0.0 mm
01:37 AM 76.1°F24.5°C 70.5°F21.4°C 83% 0.9 mph S1.4 kmh S 2.9 mph4.7 kmh 29.86 in1011.2 mb 0.00 in0.0 mm 0.00 in0.0 mm 0.00 in0.0 mm
01:42 AM 75.9°F24.4°C 70.3°F21.3°C 83% 0.9 mph S1.4 kmh S 4.0 mph6.4 kmh 29.85 in1010.8 mb 0.00 in0.0 mm 0.00 in0.0 mm 0.00 in0.0 mm
01:47 AM 75.9°F24.4°C 70.3°F21.3°C 83% 2.0 mph S3.2 kmh S 4.0 mph6.4 kmh 29.85 in1010.8 mb 0.00 in0.0 mm 0.00 in0.0 mm 0.00 in0.0 mm
01:52 AM 75.9°F24.4°C 70.3°F21.3°C 83% 2.0 mph SSW3.2 kmh SSW 2.9 mph4.7 kmh 29.85 in1010.8 mb 0.00 in0.0 mm 0.00 in0.0 mm 0.00 in0.0 mm
01:57 AM 75.9°F24.4°C 70.3°F21.3°C 83% 2.0 mph S3.2 kmh S 7.0 mph11.3 kmh 29.85 in1010.8 mb 0.00 in0.0 mm 0.00 in0.0 mm 0.00 in0.0 mm
02:02 AM 75.9°F24.4°C 70.3°F21.3°C 83% 2.0 mph S3.2 kmh S 7.0 mph11.3 kmh 29.85 in1010.8 mb 0.00 in0.0 mm 0.00 in0.0 mm 0.00 in0.0 mm
02:07 AM 75.7°F24.3°C 70.2°F21.2°C 83% 2.0 mph SSW3.2 kmh SSW 4.9 mph7.9 kmh 29.85 in1010.8 mb 0.00 in0.0 mm 0.00 in0.0 mm 0.00 in0.0 mm
02:12 AM 75.7°F24.3°C 70.2°F21.2°C 83% 2.0 mph S3.2 kmh S 4.9 mph7.9 kmh 29.85 in1010.8 mb 0.00 in0.0 mm 0.00 in0.0 mm 0.00 in0.0 mm
02:17 AM 75.6°F24.2°C 70.0°F21.1°C 83% 2.0 mph SW3.2 kmh SW 4.9 mph7.9 kmh 29.85 in1010.8 mb 0.00 in0.0 mm 0.00 in0.0 mm 0.00 in0.0 mm
02:22 AM 75.6°F24.2°C 70.0°F21.1°C 83% 2.0 mph S3.2 kmh S 2.9 mph4.7 kmh 29.85 in1010.8 mb 0.00 in0.0 mm 0.00 in0.0 mm 0.00 in0.0 mm
02:27 AM 75.6°F24.2°C 70.0°F21.1°C 83% 2.0 mph S3.2 kmh S 4.0 mph6.4 kmh 29.85 in1010.8 mb 0.00 in0.0 mm 0.00 in0.0 mm 0.00 in0.0 mm
02:32 AM 75.6°F24.2°C 70.0°F21.1°C 83% 2.0 mph SW3.2 kmh SW 4.0 mph6.4 kmh 29.85 in1010.8 mb 0.00 in0.0 mm 0.00 in0.0 mm 0.00 in0.0 mm
02:37 AM 75.6°F24.2°C 70.3°F21.3°C 84% 0.9 mph S1.4 kmh S 2.9 mph4.7 kmh 29.85 in1010.8 mb 0.00 in0.0 mm 0.00 in0.0 mm 0.00 in0.0 mm
02:42 AM 75.4°F24.1°C 70.2°F21.2°C 84% 0.9 mph SW1.4 kmh SW 5.0 mph8.0 kmh 29.86 in1011.2 mb 0.00 in0.0 mm 0.00 in0.0 mm 0.00 in0.0 mm
02:47 AM 75.4°F24.1°C 70.2°F21.2°C 84% 0.9 mph SSE1.4 kmh SSE 2.9 mph4.7 kmh 29.86 in1011.2 mb 0.00 in0.0 mm 0.00 in0.0 mm 0.00 in0.0 mm
02:52 AM 75.4°F24.1°C 70.2°F21.2°C 84% 0.9 mph SSE1.4 kmh SSE 4.0 mph6.4 kmh 29.86 in1011.2 mb 0.00 in0.0 mm 0.00 in0.0 mm 0.00 in0.0 mm
02:57 AM 75.4°F24.1°C 70.2°F21.2°C 84% 0.9 mph SSW1.4 kmh SSW 2.0 mph3.2 kmh 29.86 in1011.2 mb 0.00 in0.0 mm 0.00 in0.0 mm 0.00 in0.0 mm
03:02 AM 75.2°F24.0°C 70.0°F21.1°C 84% 0.9 mph SW1.4 kmh SW 5.0 mph8.0 kmh 29.86 in1011.2 mb 0.00 in0.0 mm 0.00 in0.0 mm 0.00 in0.0 mm
03:07 AM 75.2°F24.0°C 70.0°F21.1°C 84% 0.9 mph SSE1.4 kmh SSE 2.9 mph4.7 kmh 29.86 in1011.2 mb 0.00 in0.0 mm 0.00 in0.0 mm 0.00 in0.0 mm
03:12 AM 75.0°F23.9°C 69.8°F21.0°C 84% 0.9 mph SSW1.4 kmh SSW 2.0 mph3.2 kmh 29.86 in1011.2 mb 0.00 in0.0 mm 0.00 in0.0 mm 0.00 in0.0 mm
03:17 AM 75.0°F23.9°C 70.2°F21.2°C 85% Calm Calm 2.0 mph3.2 kmh 29.86 in1011.2 mb 0.00 in0.0 mm 0.00 in0.0 mm 0.00 in0.0 mm
03:22 AM 74.8°F23.8°C 70.0°F21.1°C 85% 0.9 mph SSW1.4 kmh SSW 4.0 mph6.4 kmh 29.87 in1011.5 mb 0.00 in0.0 mm 0.00 in0.0 mm 0.00 in0.0 mm
03:27 AM 74.8°F23.8°C 70.0°F21.1°C 85% 0.9 mph SSW1.4 kmh SSW 2.0 mph3.2 kmh 29.86 in1011.2 mb 0.00 in0.0 mm 0.00 in0.0 mm 0.00 in0.0 mm
03:32 AM 74.8°F23.8°C 70.0°F21.1°C 85% Calm Calm 2.9 mph4.7 kmh 29.86 in1011.2 mb 0.00 in0.0 mm 0.00 in0.0 mm 0.00 in0.0 mm
03:37 AM 74.8°F23.8°C 70.0°F21.1°C 85% Calm Calm 2.0 mph3.2 kmh 29.87 in1011.5 mb 0.00 in0.0 mm 0.00 in0.0 mm 0.00 in0.0 mm
03:42 AM 74.8°F23.8°C 70.0°F21.1°C 85% Calm Calm -- 29.87 in1011.5 mb 0.00 in0.0 mm 0.00 in0.0 mm 0.00 in0.0 mm
03:47 AM 74.8°F23.8°C 70.0°F21.1°C 85% Calm Calm -- 29.87 in1011.5 mb 0.00 in0.0 mm 0.00 in0.0 mm 0.00 in0.0 mm
03:52 AM 74.7°F23.7°C 70.2°F21.2°C 86% Calm Calm 1.0 mph1.6 kmh 29.87 in1011.5 mb 0.00 in0.0 mm 0.00 in0.0 mm 0.00 in0.0 mm
03:57 AM 74.7°F23.7°C 70.2°F21.2°C 86% Calm Calm -- 29.87 in1011.5 mb 0.00 in0.0 mm 0.00 in0.0 mm 0.00 in0.0 mm
04:02 AM 74.5°F23.6°C 70.0°F21.1°C 86% Calm Calm -- 29.86 in1011.2 mb 0.00 in0.0 mm 0.00 in0.0 mm 0.00 in0.0 mm
04:07 AM 74.3°F23.5°C 70.2°F21.2°C 87% Calm Calm 1.0 mph1.6 kmh 29.86 in1011.2 mb 0.00 in0.0 mm 0.00 in0.0 mm 0.00 in0.0 mm
04:12 AM 74.1°F23.4°C 70.0°F21.1°C 87% Calm Calm -- 29.86 in1011.2 mb 0.00 in0.0 mm 0.00 in0.0 mm 0.00 in0.0 mm
04:17 AM 73.9°F23.3°C 70.2°F21.2°C 88% Calm Calm 1.0 mph1.6 kmh 29.86 in1011.2 mb 0.00 in0.0 mm 0.00 in0.0 mm 0.00 in0.0 mm
04:22 AM 73.8°F23.2°C 70.0°F21.1°C 88% Calm Calm 0.9 mph1.4 kmh 29.86 in1011.2 mb 0.00 in0.0 mm 0.00 in0.0 mm 0.00 in0.0 mm
04:27 AM 73.8°F23.2°C 70.0°F21.1°C 88% Calm Calm 0.9 mph1.4 kmh 29.86 in1011.2 mb 0.00 in0.0 mm 0.00 in0.0 mm 0.00 in0.0 mm
04:32 AM 73.8°F23.2°C 70.0°F21.1°C 88% Calm Calm 0.9 mph1.4 kmh 29.86 in1011.2 mb 0.00 in0.0 mm 0.00 in0.0 mm 0.00 in0.0 mm
04:37 AM 73.6°F23.1°C 70.2°F21.2°C 89% Calm Calm 0.9 mph1.4 kmh 29.86 in1011.2 mb 0.00 in0.0 mm 0.00 in0.0 mm 0.00 in0.0 mm
04:42 AM 73.6°F23.1°C 69.8°F21.0°C 88% Calm Calm 2.0 mph3.2 kmh 29.86 in1011.2 mb 0.00 in0.0 mm 0.00 in0.0 mm 0.00 in0.0 mm
04:47 AM 73.8°F23.2°C 70.0°F21.1°C 88% Calm Calm 0.9 mph1.4 kmh 29.86 in1011.2 mb 0.00 in0.0 mm 0.00 in0.0 mm 0.00 in0.0 mm
04:52 AM 73.8°F23.2°C 70.0°F21.1°C 88% Calm Calm 2.0 mph3.2 kmh 29.86 in1011.2 mb 0.00 in0.0 mm 0.00 in0.0 mm 0.00 in0.0 mm
04:57 AM 73.8°F23.2°C 70.0°F21.1°C 88% 0.9 mph SSW1.4 kmh SSW 0.9 mph1.4 kmh 29.85 in1010.8 mb 0.00 in0.0 mm 0.00 in0.0 mm 0.00 in0.0 mm
05:02 AM 73.8°F23.2°C 70.0°F21.1°C 88% 0.9 mph SSW1.4 kmh SSW 0.9 mph1.4 kmh 29.86 in1011.2 mb 0.00 in0.0 mm 0.00 in0.0 mm 0.00 in0.0 mm
05:07 AM 73.8°F23.2°C 70.0°F21.1°C 88% Calm Calm 0.9 mph1.4 kmh 29.86 in1011.2 mb 0.00 in0.0 mm 0.00 in0.0 mm 0.00 in0.0 mm
05:12 AM 73.8°F23.2°C 70.0°F21.1°C 88% Calm Calm 0.9 mph1.4 kmh 29.86 in1011.2 mb 0.00 in0.0 mm 0.00 in0.0 mm 0.00 in0.0 mm
05:17 AM 73.6°F23.1°C 69.8°F21.0°C 88% Calm Calm 0.9 mph1.4 kmh 29.86 in1011.2 mb 0.00 in0.0 mm 0.00 in0.0 mm 0.00 in0.0 mm
05:22 AM 73.6°F23.1°C 70.2°F21.2°C 89% Calm Calm 3.0 mph4.8 kmh 29.86 in1011.2 mb 0.00 in0.0 mm 0.00 in0.0 mm 0.00 in0.0 mm
05:27 AM 73.6°F23.1°C 69.8°F21.0°C 88% 0.9 mph S1.4 kmh S 2.0 mph3.2 kmh 29.86 in1011.2 mb 0.00 in0.0 mm 0.00 in0.0 mm 0.00 in0.0 mm
05:32 AM 73.6°F23.1°C 70.2°F21.2°C 89% Calm Calm 2.0 mph3.2 kmh 29.86 in1011.2 mb 0.00 in0.0 mm 0.00 in0.0 mm 0.00 in0.0 mm
05:37 AM 73.4°F23.0°C 70.0°F21.1°C 89% Calm Calm 0.9 mph1.4 kmh 29.86 in1011.2 mb 0.00 in0.0 mm 0.00 in0.0 mm 0.00 in0.0 mm
05:42 AM 73.4°F23.0°C 70.0°F21.1°C 89% Calm Calm 4.0 mph6.4 kmh 29.86 in1011.2 mb 0.00 in0.0 mm 0.00 in0.0 mm 0.00 in0.0 mm
05:47 AM 73.4°F23.0°C 70.0°F21.1°C 89% 0.9 mph S1.4 kmh S 2.9 mph4.7 kmh 29.86 in1011.2 mb 0.00 in0.0 mm 0.00 in0.0 mm 0.00 in0.0 mm
05:52 AM 73.4°F23.0°C 70.0°F21.1°C 89% 0.9 mph S1.4 kmh S 2.9 mph4.7 kmh 29.86 in1011.2 mb 0.00 in0.0 mm 0.00 in0.0 mm 0.00 in0.0 mm
05:57 AM 73.4°F23.0°C 70.0°F21.1°C 89% 0.9 mph SSE1.4 kmh SSE 2.0 mph3.2 kmh 29.86 in1011.2 mb 0.00 in0.0 mm 0.00 in0.0 mm 0.00 in0.0 mm
06:02 AM 73.4°F23.0°C 70.0°F21.1°C 89% 0.9 mph S1.4 kmh S 2.9 mph4.7 kmh 29.87 in1011.5 mb 0.00 in0.0 mm 0.00 in0.0 mm 0.00 in0.0 mm
06:07 AM 73.4°F23.0°C 70.0°F21.1°C 89% 0.9 mph SSW1.4 kmh SSW 2.0 mph3.2 kmh 29.87 in1011.5 mb 0.00 in0.0 mm 0.00 in0.0 mm 0.00 in0.0 mm
06:12 AM 73.4°F23.0°C 70.0°F21.1°C 89% Calm Calm 2.0 mph3.2 kmh 29.87 in1011.5 mb 0.00 in0.0 mm 0.00 in0.0 mm 0.00 in0.0 mm
06:17 AM 73.6°F23.1°C 70.2°F21.2°C 89% 0.9 mph SSE1.4 kmh SSE 2.0 mph3.2 kmh 29.87 in1011.5 mb 0.00 in0.0 mm 0.00 in0.0 mm 0.00 in0.0 mm
06:22 AM 73.6°F23.1°C 70.2°F21.2°C 89% 0.9 mph SSW1.4 kmh SSW 2.0 mph3.2 kmh 29.87 in1011.5 mb 0.00 in0.0 mm 0.00 in0.0 mm 0.00 in0.0 mm
06:27 AM 73.6°F23.1°C 70.2°F21.2°C 89% 0.9 mph S1.4 kmh S 0.9 mph1.4 kmh 29.87 in1011.5 mb 0.00 in0.0 mm 0.00 in0.0 mm 0.00 in0.0 mm
06:32 AM 73.6°F23.1°C 70.2°F21.2°C 89% Calm Calm 3.0 mph4.8 kmh 29.87 in1011.5 mb 0.00 in0.0 mm 0.00 in0.0 mm 0.00 in0.0 mm
06:37 AM 73.4°F23.0°C 70.3°F21.3°C 90% Calm Calm -- 29.87 in1011.5 mb 0.00 in0.0 mm 0.00 in0.0 mm 0.00 in0.0 mm
06:42 AM 73.4°F23.0°C 70.3°F21.3°C 90% Calm Calm 3.0 mph4.8 kmh 29.87 in1011.5 mb 0.00 in0.0 mm 0.00 in0.0 mm 0.00 in0.0 mm
06:47 AM 73.6°F23.1°C 70.5°F21.4°C 90% Calm Calm 0.9 mph1.4 kmh 29.87 in1011.5 mb 0.00 in0.0 mm 0.00 in0.0 mm 0.00 in0.0 mm
06:52 AM 73.6°F23.1°C 70.5°F21.4°C 90% Calm Calm 2.0 mph3.2 kmh 29.87 in1011.5 mb 0.00 in0.0 mm 0.00 in0.0 mm 0.00 in0.0 mm
06:57 AM 73.6°F23.1°C 70.5°F21.4°C 90% Calm Calm 0.9 mph1.4 kmh 29.87 in1011.5 mb 0.00 in0.0 mm 0.00 in0.0 mm 0.00 in0.0 mm
07:02 AM 73.6°F23.1°C 70.2°F21.2°C 89% Calm Calm 0.9 mph1.4 kmh 29.87 in1011.5 mb 0.00 in0.0 mm 0.00 in0.0 mm 0.00 in0.0 mm
07:07 AM 73.8°F23.2°C 70.3°F21.3°C 89% Calm Calm 3.0 mph4.8 kmh 29.87 in1011.5 mb 0.00 in0.0 mm 0.00 in0.0 mm 0.00 in0.0 mm
07:12 AM 73.8°F23.2°C 70.3°F21.3°C 89% Calm Calm 2.0 mph3.2 kmh 29.87 in1011.5 mb 0.00 in0.0 mm 0.00 in0.0 mm 0.00 in0.0 mm
07:17 AM 73.8°F23.2°C 70.3°F21.3°C 89% 0.9 mph SSW1.4 kmh SSW 2.0 mph3.2 kmh 29.87 in1011.5 mb 0.00 in0.0 mm 0.00 in0.0 mm 0.00 in0.0 mm
07:22 AM 73.9°F23.3°C 70.5°F21.4°C 89% 0.9 mph S1.4 kmh S 4.0 mph6.4 kmh 29.87 in1011.5 mb 0.00 in0.0 mm 0.00 in0.0 mm 0.00 in0.0 mm
07:27 AM 73.9°F23.3°C 70.5°F21.4°C 89% 0.9 mph SW1.4 kmh SW 2.0 mph3.2 kmh 29.87 in1011.5 mb 0.00 in0.0 mm 0.00 in0.0 mm 0.00 in0.0 mm
07:32 AM 74.1°F23.4°C 70.7°F21.5°C 89% 0.9 mph S1.4 kmh S 2.0 mph3.2 kmh 29.87 in1011.5 mb 0.00 in0.0 mm 0.00 in0.0 mm 0.00 in0.0 mm
07:37 AM 74.1°F23.4°C 70.7°F21.5°C 89% Calm Calm 3.0 mph4.8 kmh 29.87 in1011.5 mb 0.00 in0.0 mm 0.00 in0.0 mm 0.00 in0.0 mm
07:42 AM 74.7°F23.7°C 71.2°F21.8°C 89% 0.9 mph SW1.4 kmh SW 2.9 mph4.7 kmh 29.87 in1011.5 mb 0.00 in0.0 mm 0.00 in0.0 mm 0.00 in0.0 mm
07:47 AM 74.8°F23.8°C 71.1°F21.7°C 88% 0.9 mph SW1.4 kmh SW 2.9 mph4.7 kmh 29.87 in1011.5 mb 0.00 in0.0 mm 0.00 in0.0 mm 0.00 in0.0 mm
07:52 AM 75.2°F24.0°C 71.1°F21.7°C 87% 0.9 mph SSW1.4 kmh SSW 2.0 mph3.2 kmh 29.87 in1011.5 mb 0.00 in0.0 mm 0.00 in0.0 mm 0.00 in0.0 mm
07:57 AM 75.4°F24.1°C 71.2°F21.8°C 87% 0.9 mph SW1.4 kmh SW 4.0 mph6.4 kmh 29.87 in1011.5 mb 0.00 in0.0 mm 0.00 in0.0 mm 0.00 in0.0 mm
08:02 AM 75.4°F24.1°C 71.2°F21.8°C 87% 0.9 mph SSW1.4 kmh SSW 2.0 mph3.2 kmh 29.87 in1011.5 mb 0.00 in0.0 mm 0.00 in0.0 mm 0.00 in0.0 mm
08:07 AM 75.4°F24.1°C 71.2°F21.8°C 87% 0.9 mph SW1.4 kmh SW 2.9 mph4.7 kmh 29.87 in1011.5 mb 0.00 in0.0 mm 0.00 in0.0 mm 0.00 in0.0 mm
08:12 AM 75.4°F24.1°C 71.2°F21.8°C 87% 0.9 mph SSW1.4 kmh SSW 2.0 mph3.2 kmh 29.87 in1011.5 mb 0.00 in0.0 mm 0.00 in0.0 mm 0.00 in0.0 mm
08:17 AM 75.6°F24.2°C 71.4°F21.9°C 87% Calm Calm 2.0 mph3.2 kmh 29.87 in1011.5 mb 0.00 in0.0 mm 0.00 in0.0 mm 0.00 in0.0 mm
08:22 AM 75.6°F24.2°C 71.4°F21.9°C 87% Calm Calm 2.0 mph3.2 kmh 29.87 in1011.5 mb 0.00 in0.0 mm 0.00 in0.0 mm 0.00 in0.0 mm
08:27 AM 75.7°F24.3°C 71.6°F22.0°C 87% 0.9 mph SE1.4 kmh SE 3.0 mph4.8 kmh 29.87 in1011.5 mb 0.00 in0.0 mm 0.00 in0.0 mm 0.00 in0.0 mm
08:32 AM 75.7°F24.3°C 71.6°F22.0°C 87% 0.9 mph SSE1.4 kmh SSE 2.0 mph3.2 kmh 29.87 in1011.5 mb 0.00 in0.0 mm 0.00 in0.0 mm 0.00 in0.0 mm
08:37 AM 75.9°F24.4°C 71.8°F22.1°C 87% 0.9 mph SSE1.4 kmh SSE 2.0 mph3.2 kmh 29.87 in1011.5 mb 0.00 in0.0 mm 0.00 in0.0 mm 0.00 in0.0 mm
08:42 AM 76.5°F24.7°C 72.0°F22.2°C 86% 0.9 mph SE1.4 kmh SE 2.0 mph3.2 kmh 29.87 in1011.5 mb 0.00 in0.0 mm 0.00 in0.0 mm 0.00 in0.0 mm
08:47 AM 76.8°F24.9°C 72.3°F22.4°C 86% 0.9 mph SSW1.4 kmh SSW 3.0 mph4.8 kmh 29.87 in1011.5 mb 0.00 in0.0 mm 0.00 in0.0 mm 0.00 in0.0 mm
08:52 AM 77.2°F25.1°C 72.3°F22.4°C 85% 0.9 mph S1.4 kmh S 2.9 mph4.7 kmh 29.87 in1011.5 mb 0.00 in0.0 mm 0.00 in0.0 mm 0.00 in0.0 mm
08:57 AM 77.4°F25.2°C 72.5°F22.5°C 85% 0.9 mph SW1.4 kmh SW 5.0 mph8.0 kmh 29.87 in1011.5 mb 0.00 in0.0 mm 0.00 in0.0 mm 0.00 in0.0 mm
09:02 AM 77.7°F25.4°C 72.5°F22.5°C 84% 0.9 mph SW1.4 kmh SW 4.9 mph7.9 kmh 29.87 in1011.5 mb 0.00 in0.0 mm 0.00 in0.0 mm 0.00 in0.0 mm
09:07 AM 78.3°F25.7°C 72.7°F22.6°C 83% 0.9 mph SW1.4 kmh SW 4.0 mph6.4 kmh 29.87 in1011.5 mb 0.00 in0.0 mm 0.00 in0.0 mm 0.00 in0.0 mm
09:12 AM 78.6°F25.9°C 73.0°F22.8°C 83% 0.9 mph WSW1.4 kmh WSW 2.9 mph4.7 kmh 29.87 in1011.5 mb 0.00 in0.0 mm 0.00 in0.0 mm 0.00 in0.0 mm
09:17 AM 79.2°F26.2°C 72.9°F22.7°C 81% 0.9 mph SW1.4 kmh SW 6.0 mph9.7 kmh 29.87 in1011.5 mb 0.00 in0.0 mm 0.00 in0.0 mm 0.00 in0.0 mm
09:22 AM 79.5°F26.4°C 72.9°F22.7°C 80% 2.0 mph SW3.2 kmh SW 2.9 mph4.7 kmh 29.87 in1011.5 mb 0.00 in0.0 mm 0.00 in0.0 mm 0.00 in0.0 mm
09:27 AM 79.9°F26.6°C 72.9°F22.7°C 79% 2.0 mph SE3.2 kmh SE 4.0 mph6.4 kmh 29.87 in1011.5 mb 0.00 in0.0 mm 0.00 in0.0 mm 0.00 in0.0 mm
09:32 AM 80.1°F26.7°C 73.0°F22.8°C 79% 0.9 mph SW1.4 kmh SW 4.0 mph6.4 kmh 29.87 in1011.5 mb 0.00 in0.0 mm 0.00 in0.0 mm 0.00 in0.0 mm
09:37 AM 79.9°F26.6°C 72.9°F22.7°C 79% 0.9 mph SSW1.4 kmh SSW 5.0 mph8.0 kmh 29.87 in1011.5 mb 0.00 in0.0 mm 0.00 in0.0 mm 0.00 in0.0 mm
09:42 AM 79.7°F26.5°C 73.0°F22.8°C 80% 2.0 mph NE3.2 kmh NE 2.0 mph3.2 kmh 29.87 in1011.5 mb 0.00 in0.0 mm 0.00 in0.0 mm 0.00 in0.0 mm
09:47 AM 79.3°F26.3°C 72.7°F22.6°C 80% 0.9 mph SW1.4 kmh SW 9.0 mph14.5 kmh 29.87 in1011.5 mb 0.00 in0.0 mm 0.00 in0.0 mm 0.00 in0.0 mm
09:52 AM 79.2°F26.2°C 72.9°F22.7°C 81% 0.9 mph SW1.4 kmh SW 4.0 mph6.4 kmh 29.88 in1011.9 mb 0.00 in0.0 mm 0.00 in0.0 mm 0.00 in0.0 mm
09:57 AM 79.0°F26.1°C 72.7°F22.6°C 81% 0.9 mph SW1.4 kmh SW 4.0 mph6.4 kmh 29.88 in1011.9 mb 0.00 in0.0 mm 0.00 in0.0 mm 0.00 in0.0 mm
10:02 AM 78.8°F26.0°C 72.5°F22.5°C 81% 0.9 mph SW1.4 kmh SW 4.0 mph6.4 kmh 29.88 in1011.9 mb 0.00 in0.0 mm 0.00 in0.0 mm 0.00 in0.0 mm
10:07 AM 78.8°F26.0°C 72.9°F22.7°C 82% 0.9 mph SW1.4 kmh SW 2.0 mph3.2 kmh 29.88 in1011.9 mb 0.00 in0.0 mm 0.00 in0.0 mm 0.00 in0.0 mm
10:12 AM 78.6°F25.9°C 72.7°F22.6°C 82% 0.9 mph SSW1.4 kmh SSW 5.0 mph8.0 kmh 29.88 in1011.9 mb 0.00 in0.0 mm 0.00 in0.0 mm 0.00 in0.0 mm
10:17 AM 78.6°F25.9°C 72.7°F22.6°C 82% 0.9 mph SSE1.4 kmh SSE 4.0 mph6.4 kmh 29.88 in1011.9 mb 0.00 in0.0 mm 0.00 in0.0 mm 0.00 in0.0 mm
10:22 AM 79.0°F26.1°C 73.4°F23.0°C 83% Calm Calm 2.0 mph3.2 kmh 29.88 in1011.9 mb 0.00 in0.0 mm 0.00 in0.0 mm 0.00 in0.0 mm
10:27 AM 78.6°F25.9°C 72.7°F22.6°C 82% 0.9 mph NW1.4 kmh NW 4.0 mph6.4 kmh 29.88 in1011.9 mb 0.00 in0.0 mm 0.00 in0.0 mm 0.00 in0.0 mm
10:32 AM 78.1°F25.6°C 72.5°F22.5°C 83% 0.9 mph NNE1.4 kmh NNE 4.0 mph6.4 kmh 29.89 in1012.2 mb 0.00 in0.0 mm 0.00 in0.0 mm 0.00 in0.0 mm
10:37 AM 77.7°F25.4°C 72.5°F22.5°C 84% 0.9 mph WSW1.4 kmh WSW 2.0 mph3.2 kmh 29.89 in1012.2 mb 0.00 in0.0 mm 0.00 in0.0 mm 0.00 in0.0 mm
10:42 AM 77.2°F25.1°C 72.0°F22.2°C 84% 0.9 mph WNW1.4 kmh WNW 0.9 mph1.4 kmh 29.89 in1012.2 mb 0.00 in0.0 mm 0.00 in0.0 mm 0.00 in0.0 mm
10:47 AM 76.6°F24.8°C 71.4°F21.9°C 84% 0.9 mph NE1.4 kmh NE 3.0 mph4.8 kmh 29.89 in1012.2 mb 0.00 in0.0 mm 0.00 in0.0 mm 0.00 in0.0 mm
10:52 AM 75.7°F24.3°C 70.5°F21.4°C 84% 0.9 mph NNW1.4 kmh NNW 2.0 mph3.2 kmh 29.88 in1011.9 mb 0.00 in0.0 mm 0.00 in0.0 mm 0.00 in0.0 mm
10:57 AM 75.4°F24.1°C 70.2°F21.2°C 84% 0.9 mph NE1.4 kmh NE 2.0 mph3.2 kmh 29.89 in1012.2 mb 0.00 in0.0 mm 0.00 in0.0 mm 0.00 in0.0 mm
11:02 AM 74.8°F23.8°C 70.0°F21.1°C 85% 0.9 mph N1.4 kmh N 0.9 mph1.4 kmh 29.89 in1012.2 mb 0.00 in0.0 mm 0.00 in0.0 mm 0.00 in0.0 mm
11:07 AM 74.5°F23.6°C 69.6°F20.9°C 85% Calm Calm 2.0 mph3.2 kmh 29.89 in1012.2 mb 0.00 in0.0 mm 0.00 in0.0 mm 0.00 in0.0 mm
11:12 AM 74.1°F23.4°C 69.3°F20.7°C 85% Calm Calm 0.9 mph1.4 kmh 29.89 in1012.2 mb 0.00 in0.0 mm 0.00 in0.0 mm 0.00 in0.0 mm
11:17 AM 74.1°F23.4°C 69.3°F20.7°C 85% Calm Calm 2.0 mph3.2 kmh 29.89 in1012.2 mb 0.00 in0.0 mm 0.00 in0.0 mm 0.00 in0.0 mm
11:22 AM 74.1°F23.4°C 69.3°F20.7°C 85% Calm Calm 2.0 mph3.2 kmh 29.88 in1011.9 mb 0.00 in0.0 mm 0.00 in0.0 mm 0.00 in0.0 mm
11:27 AM 74.1°F23.4°C 69.6°F20.9°C 86% Calm Calm 2.0 mph3.2 kmh 29.88 in1011.9 mb 0.00 in0.0 mm 0.00 in0.0 mm 0.00 in0.0 mm
11:32 AM 74.3°F23.5°C 69.4°F20.8°C 85% Calm Calm 2.0 mph3.2 kmh 29.88 in1011.9 mb 0.00 in0.0 mm 0.00 in0.0 mm 0.00 in0.0 mm
11:37 AM 74.5°F23.6°C 69.6°F20.9°C 85% Calm Calm 0.9 mph1.4 kmh 29.88 in1011.9 mb 0.00 in0.0 mm 0.00 in0.0 mm 0.00 in0.0 mm
11:42 AM 74.7°F23.7°C 70.2°F21.2°C 86% Calm Calm 2.0 mph3.2 kmh 29.88 in1011.9 mb 0.00 in0.0 mm 0.00 in0.0 mm 0.00 in0.0 mm
11:47 AM 74.7°F23.7°C 69.4°F20.8°C 84% Calm Calm 0.9 mph1.4 kmh 29.88 in1011.9 mb 0.00 in0.0 mm 0.00 in0.0 mm 0.00 in0.0 mm
11:52 AM 74.7°F23.7°C 69.8°F21.0°C 85% Calm Calm -- 29.88 in1011.9 mb 0.00 in0.0 mm 0.00 in0.0 mm 0.00 in0.0 mm
11:57 AM 74.7°F23.7°C 69.4°F20.8°C 84% Calm Calm -- 29.87 in1011.5 mb 0.00 in0.0 mm 0.00 in0.0 mm 0.00 in0.0 mm
12:02 PM 74.7°F23.7°C 69.4°F20.8°C 84% Calm Calm -- 29.87 in1011.5 mb 0.00 in0.0 mm 0.00 in0.0 mm 0.00 in0.0 mm
12:07 PM 74.7°F23.7°C 69.8°F21.0°C 85% Calm Calm -- 29.87 in1011.5 mb 0.00 in0.0 mm 0.00 in0.0 mm 0.00 in0.0 mm
12:12 PM 74.8°F23.8°C 70.0°F21.1°C 85% Calm Calm -- 29.87 in1011.5 mb 0.00 in0.0 mm 0.00 in0.0 mm 0.00 in0.0 mm
12:17 PM 74.8°F23.8°C 69.6°F20.9°C 84% Calm Calm -- 29.87 in1011.5 mb 0.00 in0.0 mm 0.00 in0.0 mm 0.00 in0.0 mm
12:22 PM 74.8°F23.8°C 69.6°F20.9°C 84% Calm Calm -- 29.87 in1011.5 mb 0.00 in0.0 mm 0.00 in0.0 mm 0.00 in0.0 mm
12:27 PM 74.8°F23.8°C 69.6°F20.9°C 84% Calm Calm 2.0 mph3.2 kmh 29.87 in1011.5 mb 0.00 in0.0 mm 0.00 in0.0 mm 0.00 in0.0 mm
12:32 PM 74.8°F23.8°C 70.0°F21.1°C 85% Calm Calm -- 29.87 in1011.5 mb 0.00 in0.0 mm 0.00 in0.0 mm 0.00 in0.0 mm
12:37 PM 75.0°F23.9°C 69.8°F21.0°C 84% Calm Calm 0.9 mph1.4 kmh 29.87 in1011.5 mb 0.00 in0.0 mm 0.00 in0.0 mm 0.00 in0.0 mm
12:42 PM 75.4°F24.1°C 70.2°F21.2°C 84% Calm Calm 0.9 mph1.4 kmh 29.86 in1011.2 mb 0.00 in0.0 mm 0.00 in0.0 mm 0.00 in0.0 mm
12:47 PM 75.6°F24.2°C 70.3°F21.3°C 84% Calm Calm -- 29.86 in1011.2 mb 0.00 in0.0 mm 0.00 in0.0 mm 0.00 in0.0 mm
12:52 PM 75.6°F24.2°C 70.3°F21.3°C 84% Calm Calm 2.0 mph3.2 kmh 29.85 in1010.8 mb 0.00 in0.0 mm 0.00 in0.0 mm 0.00 in0.0 mm
12:57 PM 75.9°F24.4°C 70.7°F21.5°C 84% Calm Calm 0.9 mph1.4 kmh 29.85 in1010.8 mb 0.00 in0.0 mm 0.00 in0.0 mm 0.00 in0.0 mm
01:02 PM 76.1°F24.5°C 70.5°F21.4°C 83% Calm Calm 0.9 mph1.4 kmh 29.85 in1010.8 mb 0.00 in0.0 mm 0.00 in0.0 mm 0.00 in0.0 mm
01:07 PM 76.3°F24.6°C 70.7°F21.5°C 83% Calm Calm 0.9 mph1.4 kmh 29.85 in1010.8 mb 0.00 in0.0 mm 0.00 in0.0 mm 0.00 in0.0 mm
01:12 PM 76.5°F24.7°C 70.5°F21.4°C 82% Calm Calm 0.9 mph1.4 kmh 29.84 in1010.5 mb 0.00 in0.0 mm 0.00 in0.0 mm 0.00 in0.0 mm
01:17 PM 76.5°F24.7°C 70.9°F21.6°C 83% Calm Calm 0.9 mph1.4 kmh 29.84 in1010.5 mb 0.00 in0.0 mm 0.00 in0.0 mm 0.00 in0.0 mm
01:22 PM 76.6°F24.8°C 71.1°F21.7°C 83% Calm Calm 0.9 mph1.4 kmh 29.84 in1010.5 mb 0.00 in0.0 mm 0.00 in0.0 mm 0.00 in0.0 mm
01:27 PM 76.5°F24.7°C 70.9°F21.6°C 83% Calm Calm 2.0 mph3.2 kmh 29.83 in1010.2 mb 0.00 in0.0 mm 0.00 in0.0 mm 0.00 in0.0 mm
01:32 PM 76.5°F24.7°C 70.9°F21.6°C 83% Calm Calm 0.9 mph1.4 kmh 29.83 in1010.2 mb 0.00 in0.0 mm 0.00 in0.0 mm 0.00 in0.0 mm
01:37 PM 76.5°F24.7°C 70.9°F21.6°C 83% Calm Calm 0.9 mph1.4 kmh 29.84 in1010.5 mb 0.00 in0.0 mm 0.00 in0.0 mm 0.00 in0.0 mm
01:43 PM 76.5°F24.7°C 70.9°F21.6°C 83% Calm Calm -- 29.84 in1010.5 mb 0.00 in0.0 mm 0.00 in0.0 mm 0.00 in0.0 mm
01:48 PM 76.5°F24.7°C 70.9°F21.6°C 83% Calm Calm 1.0 mph1.6 kmh 29.83 in1010.2 mb 0.00 in0.0 mm 0.00 in0.0 mm 0.00 in0.0 mm
01:53 PM 76.6°F24.8°C 71.1°F21.7°C 83% Calm Calm -- 29.83 in1010.2 mb 0.00 in0.0 mm 0.00 in0.0 mm 0.00 in0.0 mm
01:58 PM 76.6°F24.8°C 71.4°F21.9°C 84% Calm Calm 0.9 mph1.4 kmh 29.83 in1010.2 mb 0.00 in0.0 mm 0.00 in0.0 mm 0.00 in0.0 mm
02:03 PM 76.8°F24.9°C 71.2°F21.8°C 83% Calm Calm 0.9 mph1.4 kmh 29.83 in1010.2 mb 0.00 in0.0 mm 0.00 in0.0 mm 0.00 in0.0 mm
02:08 PM 77.0°F25.0°C 71.4°F21.9°C 83% Calm Calm 0.9 mph1.4 kmh 29.83 in1010.2 mb 0.00 in0.0 mm 0.00 in0.0 mm 0.00 in0.0 mm
02:13 PM 77.2°F25.1°C 71.6°F22.0°C 83% Calm Calm 2.0 mph3.2 kmh 29.82 in1009.8 mb 0.00 in0.0 mm 0.00 in0.0 mm 0.00 in0.0 mm
02:18 PM 77.2°F25.1°C 71.6°F22.0°C 83% Calm Calm 2.0 mph3.2 kmh 29.83 in1010.2 mb 0.00 in0.0 mm 0.00 in0.0 mm 0.00 in0.0 mm
02:23 PM 77.4°F25.2°C 71.4°F21.9°C 82% Calm Calm 0.9 mph1.4 kmh 29.82 in1009.8 mb 0.00 in0.0 mm 0.00 in0.0 mm 0.00 in0.0 mm
02:28 PM 77.4°F25.2°C 71.4°F21.9°C 82% Calm Calm 0.9 mph1.4 kmh 29.83 in1010.2 mb 0.00 in0.0 mm 0.00 in0.0 mm 0.00 in0.0 mm
02:33 PM 77.4°F25.2°C 71.4°F21.9°C 82% Calm Calm 3.0 mph4.8 kmh 29.82 in1009.8 mb 0.00 in0.0 mm 0.00 in0.0 mm 0.00 in0.0 mm
02:38 PM 77.4°F25.2°C 71.4°F21.9°C 82% 0.9 mph W1.4 kmh W 2.9 mph4.7 kmh 29.82 in1009.8 mb 0.00 in0.0 mm 0.00 in0.0 mm 0.00 in0.0 mm
02:43 PM 77.4°F25.2°C 71.4°F21.9°C 82% Calm Calm 0.9 mph1.4 kmh 29.82 in1009.8 mb 0.00 in0.0 mm 0.00 in0.0 mm 0.00 in0.0 mm
02:48 PM 77.5°F25.3°C 71.6°F22.0°C 82% Calm Calm 2.0 mph3.2 kmh 29.82 in1009.8 mb 0.00 in0.0 mm 0.00 in0.0 mm 0.00 in0.0 mm
02:53 PM 77.5°F25.3°C 71.6°F22.0°C 82% Calm Calm 0.9 mph1.4 kmh 29.82 in1009.8 mb 0.00 in0.0 mm 0.00 in0.0 mm 0.00 in0.0 mm
02:58 PM 77.5°F25.3°C 71.6°F22.0°C 82% Calm Calm 0.9 mph1.4 kmh 29.81 in1009.5 mb 0.00 in0.0 mm 0.00 in0.0 mm 0.00 in0.0 mm
03:03 PM 77.4°F25.2°C 71.8°F22.1°C 83% Calm Calm 0.9 mph1.4 kmh 29.81 in1009.5 mb 0.00 in0.0 mm 0.00 in0.0 mm 0.00 in0.0 mm
03:08 PM 77.4°F25.2°C 71.8°F22.1°C 83% Calm Calm 0.9 mph1.4 kmh 29.79 in1008.8 mb 0.00 in0.0 mm 0.00 in0.0 mm 0.00 in0.0 mm
03:13 PM 77.2°F25.1°C 72.0°F22.2°C 84% Calm Calm 0.9 mph1.4 kmh 29.80 in1009.1 mb 0.00 in0.0 mm 0.00 in0.0 mm 0.00 in0.0 mm
03:18 PM 77.2°F25.1°C 72.0°F22.2°C 84% Calm Calm -- 29.80 in1009.1 mb 0.00 in0.0 mm 0.00 in0.0 mm 0.00 in0.0 mm
03:23 PM 77.2°F25.1°C 72.0°F22.2°C 84% Calm Calm -- 29.79 in1008.8 mb 0.00 in0.0 mm 0.00 in0.0 mm 0.00 in0.0 mm
03:28 PM 77.2°F25.1°C 72.3°F22.4°C 85% Calm Calm -- 29.80 in1009.1 mb 0.00 in0.0 mm 0.00 in0.0 mm 0.00 in0.0 mm
03:33 PM 77.0°F25.0°C 72.1°F22.3°C 85% Calm Calm 1.0 mph1.6 kmh 29.80 in1009.1 mb 0.00 in0.0 mm 0.00 in0.0 mm 0.00 in0.0 mm
03:38 PM 77.0°F25.0°C 72.5°F22.5°C 86% Calm Calm -- 29.80 in1009.1 mb 0.00 in0.0 mm 0.00 in0.0 mm 0.00 in0.0 mm
03:43 PM 76.6°F24.8°C 72.5°F22.5°C 87% Calm Calm 1.0 mph1.6 kmh 29.80 in1009.1 mb 0.01 in0.3 mm 0.12 in3.0 mm 0.01 in0.3 mm
03:48 PM 76.3°F24.6°C 72.9°F22.7°C 89% Calm Calm -- 29.79 in1008.8 mb 0.01 in0.3 mm 0.00 in0.0 mm 0.01 in0.3 mm
03:53 PM 76.1°F24.5°C 72.9°F22.7°C 90% Calm Calm 0.9 mph1.4 kmh 29.79 in1008.8 mb 0.01 in0.3 mm 0.00 in0.0 mm 0.01 in0.3 mm
03:58 PM 75.7°F24.3°C 72.7°F22.6°C 90% Calm Calm -- 29.79 in1008.8 mb 0.01 in0.3 mm 0.00 in0.0 mm 0.01 in0.3 mm
04:03 PM 75.7°F24.3°C 72.7°F22.6°C 90% Calm Calm 1.0 mph1.6 kmh 29.79 in1008.8 mb 0.01 in0.3 mm 0.00 in0.0 mm 0.01 in0.3 mm
04:08 PM 75.6°F24.2°C 72.5°F22.5°C 90% Calm Calm 0.9 mph1.4 kmh 29.80 in1009.1 mb 0.01 in0.3 mm 0.00 in0.0 mm 0.01 in0.3 mm
04:18 PM 75.4°F24.1°C 72.5°F22.5°C 91% Calm Calm 1.0 mph1.6 kmh 29.79 in1008.8 mb 0.01 in0.3 mm 0.00 in0.0 mm 0.01 in0.3 mm
04:23 PM 75.4°F24.1°C 72.5°F22.5°C 91% Calm Calm 0.9 mph1.4 kmh 29.80 in1009.1 mb 0.03 in0.8 mm 0.24 in6.1 mm 0.03 in0.8 mm
04:28 PM 75.0°F23.9°C 72.5°F22.5°C 92% Calm Calm 3.0 mph4.8 kmh 29.80 in1009.1 mb 0.03 in0.8 mm 0.00 in0.0 mm 0.03 in0.8 mm
04:33 PM 74.8°F23.8°C 72.3°F22.4°C 92% 0.9 mph NNE1.4 kmh NNE 4.0 mph6.4 kmh 29.80 in1009.1 mb 0.03 in0.8 mm 0.00 in0.0 mm 0.03 in0.8 mm
04:38 PM 74.8°F23.8°C 72.3°F22.4°C 92% 0.9 mph NW1.4 kmh NW 2.9 mph4.7 kmh 29.80 in1009.1 mb 0.02 in0.5 mm 0.00 in0.0 mm 0.03 in0.8 mm
04:43 PM 74.8°F23.8°C 72.3°F22.4°C 92% 0.9 mph N1.4 kmh N 2.0 mph3.2 kmh 29.80 in1009.1 mb 0.02 in0.5 mm 0.00 in0.0 mm 0.03 in0.8 mm
04:48 PM 74.8°F23.8°C 72.7°F22.6°C 93% Calm Calm 0.9 mph1.4 kmh 29.81 in1009.5 mb 0.03 in0.8 mm 0.12 in3.0 mm 0.04 in1.0 mm
04:53 PM 74.7°F23.7°C 72.5°F22.5°C 93% Calm Calm 0.9 mph1.4 kmh 29.82 in1009.8 mb 0.03 in0.8 mm 0.00 in0.0 mm 0.04 in1.0 mm
04:58 PM 74.5°F23.6°C 72.3°F22.4°C 93% Calm Calm 2.0 mph3.2 kmh 29.83 in1010.2 mb 0.10 in2.5 mm 0.84 in21.3 mm 0.11 in2.8 mm
05:03 PM 74.1°F23.4°C 72.0°F22.2°C 93% 0.9 mph W1.4 kmh W 5.0 mph8.0 kmh 29.83 in1010.2 mb 0.30 in7.6 mm 0.22 in5.6 mm 0.31 in7.9 mm
05:08 PM 73.8°F23.2°C 72.0°F22.2°C 94% 0.9 mph NE1.4 kmh NE 2.0 mph3.2 kmh 29.84 in1010.5 mb 0.52 in13.2 mm 2.64 in67.1 mm 0.53 in13.5 mm
05:13 PM 73.2°F22.9°C 71.4°F21.9°C 94% 0.9 mph WSW1.4 kmh WSW 2.9 mph4.7 kmh 29.80 in1009.1 mb 0.68 in17.3 mm 1.92 in48.8 mm 0.69 in17.5 mm
05:18 PM 72.7°F22.6°C 70.9°F21.6°C 94% 0.9 mph NW1.4 kmh NW 2.9 mph4.7 kmh 29.81 in1009.5 mb 0.69 in17.5 mm 0.12 in3.0 mm 0.70 in17.8 mm
05:23 PM 72.3°F22.4°C 70.5°F21.4°C 94% 0.9 mph SW1.4 kmh SW 2.0 mph3.2 kmh 29.82 in1009.8 mb 0.67 in17.0 mm 0.00 in0.0 mm 0.70 in17.8 mm
05:28 PM 71.8°F22.1°C 70.0°F21.1°C 94% 0.9 mph N1.4 kmh N 2.9 mph4.7 kmh 29.82 in1009.8 mb 0.68 in17.3 mm 0.12 in3.0 mm 0.71 in18.0 mm
05:33 PM 71.2°F21.8°C 69.4°F20.8°C 94% 0.9 mph NW1.4 kmh NW 2.0 mph3.2 kmh 29.82 in1009.8 mb 0.70 in17.8 mm 0.24 in6.1 mm 0.73 in18.5 mm
05:38 PM 71.1°F21.7°C 69.6°F20.9°C 95% Calm Calm 2.0 mph3.2 kmh 29.83 in1010.2 mb 0.70 in17.8 mm 0.00 in0.0 mm 0.73 in18.5 mm
05:43 PM 70.3°F21.3°C 68.5°F20.3°C 94% 0.9 mph WSW1.4 kmh WSW 3.0 mph4.8 kmh 29.83 in1010.2 mb 0.71 in18.0 mm 0.12 in3.0 mm 0.74 in18.8 mm
05:48 PM 70.0°F21.1°C 68.2°F20.1°C 94% 0.9 mph NW1.4 kmh NW 6.0 mph9.7 kmh 29.83 in1010.2 mb 0.71 in18.0 mm 0.00 in0.0 mm 0.75 in19.1 mm
05:53 PM 69.4°F20.8°C 68.0°F20.0°C 95% 0.9 mph N1.4 kmh N 2.9 mph4.7 kmh 29.82 in1009.8 mb 0.71 in18.0 mm 0.00 in0.0 mm 0.76 in19.3 mm
05:58 PM 69.3°F20.7°C 67.8°F19.9°C 95% 0.9 mph N1.4 kmh N 2.9 mph4.7 kmh 29.82 in1009.8 mb 0.63 in16.0 mm 0.00 in0.0 mm 0.76 in19.3 mm
06:03 PM 68.7°F20.4°C 67.3°F19.6°C 95% 0.9 mph N1.4 kmh N 4.0 mph6.4 kmh 29.84 in1010.5 mb 0.43 in10.9 mm 0.00 in0.0 mm 0.77 in19.6 mm
06:08 PM 68.4°F20.2°C 66.9°F19.4°C 95% 0.9 mph N1.4 kmh N 2.9 mph4.7 kmh 29.84 in1010.5 mb 0.21 in5.3 mm 0.00 in0.0 mm 0.78 in19.8 mm
06:13 PM 68.0°F20.0°C 66.6°F19.2°C 95% 0.9 mph N1.4 kmh N 2.0 mph3.2 kmh 29.84 in1010.5 mb 0.08 in2.0 mm 0.00 in0.0 mm 0.78 in19.8 mm
06:18 PM 67.8°F19.9°C 66.4°F19.1°C 95% 0.9 mph N1.4 kmh N -- 29.84 in1010.5 mb 0.09 in2.3 mm 0.12 in3.0 mm 0.79 in20.1 mm
06:23 PM 67.6°F19.8°C 66.2°F19.0°C 95% Calm Calm 0.9 mph1.4 kmh 29.84 in1010.5 mb 0.08 in2.0 mm 0.00 in0.0 mm 0.79 in20.1 mm
06:28 PM 67.6°F19.8°C 66.4°F19.1°C 96% Calm Calm 2.0 mph3.2 kmh 29.84 in1010.5 mb 0.10 in2.5 mm 0.24 in6.1 mm 0.82 in20.8 mm
06:33 PM 67.6°F19.8°C 66.4°F19.1°C 96% Calm Calm 0.9 mph1.4 kmh 29.84 in1010.5 mb 0.12 in3.0 mm 0.24 in6.1 mm 0.85 in21.6 mm
06:38 PM 67.5°F19.7°C 66.2°F19.0°C 96% Calm Calm 0.9 mph1.4 kmh 29.83 in1010.2 mb 0.13 in3.3 mm 0.12 in3.0 mm 0.87 in22.1 mm
06:43 PM 67.5°F19.7°C 66.2°F19.0°C 96% Calm Calm 0.9 mph1.4 kmh 29.83 in1010.2 mb 0.13 in3.3 mm 0.00 in0.0 mm 0.87 in22.1 mm
06:48 PM 67.5°F19.7°C 66.2°F19.0°C 96% Calm Calm 0.9 mph1.4 kmh 29.83 in1010.2 mb 0.13 in3.3 mm 0.00 in0.0 mm 0.88 in22.4 mm
06:58 PM 67.3°F19.6°C 66.0°F18.9°C 96% Calm Calm 2.0 mph3.2 kmh 29.82 in1009.8 mb 0.13 in3.3 mm 0.00 in0.0 mm 0.89 in22.6 mm
07:03 PM 67.3°F19.6°C 66.0°F18.9°C 96% Calm Calm -- 29.83 in1010.2 mb 0.11 in2.8 mm 0.00 in0.0 mm 0.89 in22.6 mm
07:08 PM 67.3°F19.6°C 66.0°F18.9°C 96% Calm Calm -- 29.84 in1010.5 mb 0.12 in3.0 mm 0.12 in3.0 mm 0.90 in22.9 mm
07:13 PM 67.3°F19.6°C 66.0°F18.9°C 96% Calm Calm 1.0 mph1.6 kmh 29.84 in1010.5 mb 0.11 in2.8 mm 0.00 in0.0 mm 0.90 in22.9 mm
07:18 PM 67.3°F19.6°C 66.0°F18.9°C 96% Calm Calm -- 29.84 in1010.5 mb 0.12 in3.0 mm 0.12 in3.0 mm 0.91 in23.1 mm
07:23 PM 67.3°F19.6°C 66.0°F18.9°C 96% Calm Calm -- 29.84 in1010.5 mb 0.12 in3.0 mm 0.00 in0.0 mm 0.92 in23.4 mm
07:28 PM 67.3°F19.6°C 66.0°F18.9°C 96% Calm Calm 1.0 mph1.6 kmh 29.84 in1010.5 mb 0.10 in2.5 mm 0.00 in0.0 mm 0.93 in23.6 mm
07:33 PM 67.3°F19.6°C 66.0°F18.9°C 96% Calm Calm -- 29.83 in1010.2 mb 0.07 in1.8 mm 0.00 in0.0 mm 0.93 in23.6 mm
07:38 PM 67.3°F19.6°C 66.0°F18.9°C 96% Calm Calm -- 29.83 in1010.2 mb 0.07 in1.8 mm 0.00 in0.0 mm 0.94 in23.9 mm
07:43 PM 67.3°F19.6°C 66.0°F18.9°C 96% Calm Calm -- 29.84 in1010.5 mb 0.07 in1.8 mm 0.00 in0.0 mm 0.94 in23.9 mm
07:48 PM 67.3°F19.6°C 66.4°F19.1°C 97% Calm Calm -- 29.84 in1010.5 mb 0.07 in1.8 mm 0.00 in0.0 mm 0.95 in24.1 mm
07:53 PM 67.3°F19.6°C 66.4°F19.1°C 97% Calm Calm -- 29.84 in1010.5 mb 0.07 in1.8 mm 0.00 in0.0 mm 0.95 in24.1 mm
07:58 PM 67.3°F19.6°C 66.4°F19.1°C 97% Calm Calm -- 29.84 in1010.5 mb 0.07 in1.8 mm 0.00 in0.0 mm 0.96 in24.4 mm
08:03 PM 67.3°F19.6°C 66.4°F19.1°C 97% Calm Calm -- 29.83 in1010.2 mb 0.07 in1.8 mm 0.00 in0.0 mm 0.96 in24.4 mm
08:08 PM 67.3°F19.6°C 66.4°F19.1°C 97% Calm Calm -- 29.83 in1010.2 mb 0.07 in1.8 mm 0.00 in0.0 mm 0.97 in24.6 mm
08:13 PM 67.3°F19.6°C 66.4°F19.1°C 97% Calm Calm -- 29.83 in1010.2 mb 0.06 in1.5 mm 0.00 in0.0 mm 0.97 in24.6 mm
08:18 PM 67.3°F19.6°C 66.4°F19.1°C 97% Calm Calm -- 29.83 in1010.2 mb 0.06 in1.5 mm 0.00 in0.0 mm 0.97 in24.6 mm
08:28 PM 67.3°F19.6°C 66.4°F19.1°C 97% Calm Calm 1.0 mph1.6 kmh 29.82 in1009.8 mb 0.04 in1.0 mm 0.00 in0.0 mm 0.97 in24.6 mm
08:33 PM 67.5°F19.7°C 66.6°F19.2°C 97% Calm Calm -- 29.82 in1009.8 mb 0.03 in0.8 mm 0.00 in0.0 mm 0.97 in24.6 mm
08:38 PM 67.5°F19.7°C 66.6°F19.2°C 97% Calm Calm -- 29.82 in1009.8 mb 0.04 in1.0 mm 0.12 in3.0 mm 0.98 in24.9 mm
08:43 PM 67.5°F19.7°C 66.6°F19.2°C 97% Calm Calm -- 29.82 in1009.8 mb 0.05 in1.3 mm 0.12 in3.0 mm 0.99 in25.1 mm
08:48 PM 67.5°F19.7°C 66.6°F19.2°C 97% Calm Calm -- 29.81 in1009.5 mb 0.04 in1.0 mm 0.00 in0.0 mm 0.99 in25.1 mm
08:53 PM 67.5°F19.7°C 66.6°F19.2°C 97% Calm Calm -- 29.81 in1009.5 mb 0.04 in1.0 mm 0.00 in0.0 mm 0.99 in25.1 mm
08:58 PM 67.5°F19.7°C 66.6°F19.2°C 97% Calm Calm 1.0 mph1.6 kmh 29.81 in1009.5 mb 0.03 in0.8 mm 0.00 in0.0 mm 0.99 in25.1 mm
09:03 PM 67.5°F19.7°C 66.6°F19.2°C 97% Calm Calm -- 29.81 in1009.5 mb 0.03 in0.8 mm 0.00 in0.0 mm 0.99 in25.1 mm
09:08 PM 67.6°F19.8°C 66.7°F19.3°C 97% Calm Calm -- 29.81 in1009.5 mb 0.03 in0.8 mm 0.00 in0.0 mm 1.00 in25.4 mm
09:13 PM 67.6°F19.8°C 66.7°F19.3°C 97% Calm Calm 1.0 mph1.6 kmh 29.80 in1009.1 mb 0.03 in0.8 mm 0.00 in0.0 mm 1.00 in25.4 mm
09:18 PM 67.6°F19.8°C 66.7°F19.3°C 97% Calm Calm 2.0 mph3.2 kmh 29.80 in1009.1 mb 0.03 in0.8 mm 0.00 in0.0 mm 1.00 in25.4 mm
09:23 PM 67.8°F19.9°C 66.9°F19.4°C 97% Calm Calm -- 29.80 in1009.1 mb 0.04 in1.0 mm 0.12 in3.0 mm 1.01 in25.7 mm
09:28 PM 67.8°F19.9°C 66.9°F19.4°C 97% Calm Calm 0.9 mph1.4 kmh 29.80 in1009.1 mb 0.04 in1.0 mm 0.00 in0.0 mm 1.01 in25.7 mm
09:33 PM 67.8°F19.9°C 66.9°F19.4°C 97% Calm Calm -- 29.80 in1009.1 mb 0.04 in1.0 mm 0.00 in0.0 mm 1.01 in25.7 mm
09:38 PM 67.8°F19.9°C 66.9°F19.4°C 97% Calm Calm 1.0 mph1.6 kmh 29.79 in1008.8 mb 0.03 in0.8 mm 0.00 in0.0 mm 1.01 in25.7 mm
09:43 PM 68.0°F20.0°C 67.1°F19.5°C 97% Calm Calm 0.9 mph1.4 kmh 29.79 in1008.8 mb 0.02 in0.5 mm 0.00 in0.0 mm 1.01 in25.7 mm
09:48 PM 68.0°F20.0°C 67.1°F19.5°C 97% Calm Calm -- 29.79 in1008.8 mb 0.02 in0.5 mm 0.00 in0.0 mm 1.01 in25.7 mm
09:53 PM 68.0°F20.0°C 67.1°F19.5°C 97% Calm Calm 0.9 mph1.4 kmh 29.80 in1009.1 mb 0.02 in0.5 mm 0.00 in0.0 mm 1.01 in25.7 mm
09:58 PM 68.0°F20.0°C 67.1°F19.5°C 97% Calm Calm -- 29.82 in1009.8 mb 0.03 in0.8 mm 0.12 in3.0 mm 1.02 in25.9 mm
10:03 PM 67.8°F19.9°C 66.9°F19.4°C 97% Calm Calm -- 29.82 in1009.8 mb 0.10 in2.5 mm 0.08 in2.0 mm 1.09 in27.7 mm
10:08 PM 67.8°F19.9°C 66.9°F19.4°C 97% Calm Calm -- 29.82 in1009.8 mb 0.23 in5.8 mm 1.56 in39.6 mm 1.23 in31.2 mm
10:13 PM 67.8°F19.9°C 66.9°F19.4°C 97% Calm Calm 1.0 mph1.6 kmh 29.82 in1009.8 mb 0.29 in7.4 mm 0.72 in18.3 mm 1.29 in32.8 mm
10:18 PM 67.8°F19.9°C 66.9°F19.4°C 97% Calm Calm 0.9 mph1.4 kmh 29.82 in1009.8 mb 0.35 in8.9 mm 0.72 in18.3 mm 1.35 in34.3 mm
10:24 PM 67.6°F19.8°C 66.7°F19.3°C 97% Calm Calm 3.0 mph4.8 kmh 29.82 in1009.8 mb 0.45 in11.4 mm 1.00 in25.4 mm 1.46 in37.1 mm
10:29 PM 67.6°F19.8°C 66.7°F19.3°C 97% Calm Calm 0.9 mph1.4 kmh 29.83 in1010.2 mb 0.58 in14.7 mm 1.56 in39.6 mm 1.59 in40.4 mm
10:34 PM 67.5°F19.7°C 66.6°F19.2°C 97% Calm Calm -- 29.83 in1010.2 mb 0.78 in19.8 mm 2.40 in61.0 mm 1.79 in45.5 mm
10:39 PM 67.3°F19.6°C 66.4°F19.1°C 97% Calm Calm 2.0 mph3.2 kmh 29.83 in1010.2 mb 0.95 in24.1 mm 2.04 in51.8 mm 1.96 in49.8 mm
10:44 PM 66.9°F19.4°C 66.0°F18.9°C 97% Calm Calm 2.0 mph3.2 kmh 29.83 in1010.2 mb 1.09 in27.7 mm 1.68 in42.7 mm 2.10 in53.3 mm
10:49 PM 66.6°F19.2°C 65.7°F18.7°C 97% 0.9 mph WNW1.4 kmh WNW 5.0 mph8.0 kmh 29.83 in1010.2 mb 1.15 in29.2 mm 0.72 in18.3 mm 2.16 in54.9 mm
10:54 PM 66.4°F19.1°C 65.5°F18.6°C 97% 0.9 mph N1.4 kmh N 2.0 mph3.2 kmh 29.82 in1009.8 mb 1.19 in30.2 mm 0.48 in12.2 mm 2.20 in55.9 mm
10:59 PM 66.0°F18.9°C 65.1°F18.4°C 97% 0.9 mph N1.4 kmh N 2.9 mph4.7 kmh 29.82 in1009.8 mb 1.18 in30.0 mm 0.00 in0.0 mm 2.21 in56.1 mm
11:04 PM 65.8°F18.8°C 64.9°F18.3°C 97% 0.9 mph NW1.4 kmh NW 4.0 mph6.4 kmh 29.82 in1009.8 mb 1.09 in27.7 mm 0.00 in0.0 mm 2.02 in51.3 mm
11:09 PM 65.7°F18.7°C 64.8°F18.2°C 97% Calm Calm 2.9 mph4.7 kmh 29.82 in1009.8 mb 0.95 in24.1 mm 0.00 in0.0 mm 2.02 in51.3 mm
11:14 PM 65.3°F18.5°C 64.4°F18.0°C 97% Calm Calm 3.0 mph4.8 kmh 29.82 in1009.8 mb 0.89 in22.6 mm 0.00 in0.0 mm 2.02 in51.3 mm
11:19 PM 64.9°F18.3°C 64.0°F17.8°C 97% Calm Calm 2.0 mph3.2 kmh 29.82 in1009.8 mb 0.85 in21.6 mm 0.00 in0.0 mm 0.01 in0.3 mm
11:24 PM 64.8°F18.2°C 63.9°F17.7°C 97% Calm Calm 3.0 mph4.8 kmh 29.82 in1009.8 mb 0.71 in18.0 mm 0.00 in0.0 mm 0.01 in0.3 mm
11:29 PM 64.6°F18.1°C 63.7°F17.6°C 97% Calm Calm 2.9 mph4.7 kmh 29.82 in1009.8 mb 0.57 in14.5 mm 0.00 in0.0 mm 0.01 in0.3 mm
11:34 PM 64.0°F17.8°C 63.1°F17.3°C 97% 0.9 mph N1.4 kmh N 2.9 mph4.7 kmh 29.81 in1009.5 mb 0.38 in9.7 mm 0.00 in0.0 mm 0.02 in0.5 mm
11:39 PM 63.7°F17.6°C 62.8°F17.1°C 97% 0.9 mph N1.4 kmh N 2.9 mph4.7 kmh 29.82 in1009.8 mb 0.22 in5.6 mm 0.00 in0.0 mm 0.02 in0.5 mm
11:44 PM 63.3°F17.4°C 62.4°F16.9°C 97% 0.9 mph NNW1.4 kmh NNW 4.0 mph6.4 kmh 29.82 in1009.8 mb 0.11 in2.8 mm 0.00 in0.0 mm 0.02 in0.5 mm
11:49 PM 63.1°F17.3°C 62.2°F16.8°C 97% 0.9 mph N1.4 kmh N 2.9 mph4.7 kmh 29.82 in1009.8 mb 0.06 in1.5 mm 0.00 in0.0 mm 0.02 in0.5 mm
11:54 PM 63.0°F17.2°C 62.1°F16.7°C 97% 0.9 mph NNW1.4 kmh NNW 2.0 mph3.2 kmh 29.82 in1009.8 mb 0.03 in0.8 mm 0.00 in0.0 mm 0.02 in0.5 mm
11:59 PM 62.8°F17.1°C 61.9°F16.6°C 97% Calm Calm 2.0 mph3.2 kmh 29.82 in1009.8 mb 0.02 in0.5 mm 0.00 in0.0 mm 0.02 in0.5 mm